Time;durP1;ratioP1;P1;durP2;ratioP2;P2;SDS_P1;SDS_P2;PMS_P1;PMS_P2;Temp;Humidity;BMP_temperature;BMP_pressure;BME280_temperature;BME280_humidity;BME280_pressure;Samples;Min_cycle;Max_cycle;Signal;HPM_P1;HPM_P2
2023/06/13 00:00:24;;;;;;;6.20;6.10;;;;;;;-141.02;100.00;107971.50;5135886;27;20283;-58
2023/06/13 00:02:51;;;;;;;6.55;6.43;;;;;;;-141.02;100.00;107971.50;5135816;27;20662;-59
2023/06/13 00:05:21;;;;;;;6.38;6.28;;;;;;;-141.02;100.00;107971.50;5135782;27;20264;-59
2023/06/13 00:07:49;;;;;;;6.30;6.20;;;;;;;-141.02;100.00;107971.50;5136116;27;20192;-65
2023/06/13 00:10:40;;;;;;;6.32;6.22;;;;;;;-141.02;100.00;107971.50;5135724;27;20192;-58
2023/06/13 00:13:27;;;;;;;6.45;6.35;;;;;;;-141.02;100.00;107971.50;5135639;27;20199;-63
2023/06/13 00:15:56;;;;;;;7.00;6.80;;;;;;;-141.02;100.00;107971.50;5135861;27;20192;-63
2023/06/13 00:18:23;;;;;;;7.10;6.90;;;;;;;-141.02;100.00;107971.50;5135764;27;20193;-58
2023/06/13 00:20:54;;;;;;;7.15;6.95;;;;;;;-141.02;100.00;107971.50;5135453;27;20570;-59
2023/06/13 00:23:22;;;;;;;7.68;7.47;;;;;;;-141.02;100.00;107971.50;5135746;27;20246;-60
2023/06/13 00:25:48;;;;;;;6.57;6.43;;;;;;;-141.02;100.00;107971.50;5135672;27;20221;-58
2023/06/13 00:28:15;;;;;;;7.40;7.20;;;;;;;-141.02;100.00;107971.50;5135300;27;20648;-58
2023/06/13 00:30:43;;;;;;;7.60;7.40;;;;;;;-141.02;100.00;107971.50;5135608;27;20276;-58
2023/06/13 00:33:16;;;;;;;7.22;7.03;;;;;;;-141.02;100.00;107971.50;5135234;27;20203;-59
2023/06/13 00:35:43;;;;;;;6.97;6.78;;;;;;;-141.02;100.00;107971.50;5135288;27;20688;-63
2023/06/13 00:38:12;;;;;;;7.28;7.07;;;;;;;-141.02;100.00;107971.50;5135587;27;20287;-58
2023/06/13 00:40:39;;;;;;;6.82;6.63;;;;;;;-141.02;100.00;107971.50;5135157;27;20673;-58
2023/06/13 00:43:06;;;;;;;6.40;6.30;;;;;;;-141.02;100.00;107971.50;5135084;27;20288;-58
2023/06/13 00:45:34;;;;;;;6.22;6.13;;;;;;;-141.02;100.00;107971.50;5134989;27;20245;-62
2023/06/13 00:48:03;;;;;;;6.40;6.30;;;;;;;-141.02;100.00;107971.50;5135008;27;20202;-58
2023/06/13 00:50:33;;;;;;;6.45;6.35;;;;;;;-141.02;100.00;107971.50;5135301;27;20224;-58
2023/06/13 00:53:02;;;;;;;6.70;6.50;;;;;;;-141.02;100.00;107971.50;5134856;27;20238;-59
2023/06/13 00:55:31;;;;;;;6.50;6.40;;;;;;;-141.02;100.00;107971.50;5134754;27;20232;-60
2023/06/13 00:58:06;;;;;;;5.70;5.60;;;;;;;-141.02;100.00;107971.50;5134736;27;20199;-58
2023/06/13 01:00:34;;;;;;;6.50;6.40;;;;;;;-141.02;100.00;107971.50;5135097;27;20196;-60
2023/06/13 01:03:07;;;;;;;6.53;6.40;;;;;;;-141.02;100.00;107971.50;5134633;27;20193;-58
2023/06/13 01:05:34;;;;;;;6.30;6.20;;;;;;;-141.02;100.00;107971.50;5134949;27;20216;-58
2023/06/13 01:08:06;;;;;;;6.30;6.20;;;;;;;-141.02;100.00;107971.50;5133846;27;20199;-59
2023/06/13 01:10:36;;;;;;;6.47;6.38;;;;;;;-141.02;100.00;107971.50;5134597;27;20275;-59
2023/06/13 01:13:10;;;;;;;6.20;6.10;;;;;;;-141.02;100.00;107971.50;5134481;27;20200;-58
2023/06/13 01:15:44;;;;;;;6.35;6.25;;;;;;;-141.02;100.00;107971.50;5134442;27;20184;-58
2023/06/13 01:18:13;;;;;;;5.78;5.68;;;;;;;-141.02;100.00;107971.50;5134763;27;20190;-61
2023/06/13 01:20:44;;;;;;;5.50;5.40;;;;;;;-141.02;100.00;107971.50;5134356;27;20729;-60
2023/06/13 01:23:20;;;;;;;5.43;5.32;;;;;;;-141.02;100.00;107971.50;5134291;27;20227;-58
2023/06/13 01:26:00;;;;;;;4.60;4.50;;;;;;;-141.02;100.00;107971.50;5134145;27;20219;-62
2023/06/13 01:28:32;;;;;;;5.00;4.90;;;;;;;-141.02;100.00;107971.50;5134546;27;20193;-58
2023/06/13 01:34:21;;;;;;;4.95;4.85;;;;;;;-141.02;100.00;107971.50;5134067;27;20229;-58
2023/06/13 01:36:49;;;;;;;4.78;4.68;;;;;;;-141.02;100.00;107971.50;5134843;27;20646;-58
2023/06/13 01:39:16;;;;;;;4.90;4.80;;;;;;;-141.02;100.00;107971.50;5133953;27;20683;-58
2023/06/13 01:41:43;;;;;;;4.80;4.70;;;;;;;-141.02;100.00;107971.50;5134040;27;20316;-61
2023/06/13 01:44:14;;;;;;;3.97;3.88;;;;;;;-141.02;100.00;107971.50;5133806;27;20192;-58
2023/06/13 01:46:48;;;;;;;3.67;3.58;;;;;;;-141.02;100.00;107971.50;5133878;27;20284;-60
2023/06/13 01:49:52;;;;;;;3.30;3.30;;;;;;;-141.02;100.00;107971.50;5133792;27;20230;-58
2023/06/13 01:52:35;;;;;;;3.60;3.50;;;;;;;-141.02;100.00;107971.50;5133748;27;20191;-58
2023/06/13 01:55:09;;;;;;;3.20;3.20;;;;;;;-141.02;100.00;107971.50;5133471;27;20776;-63
2023/06/13 01:58:21;;;;;;;3.00;3.00;;;;;;;-141.02;100.00;107971.50;5134003;27;20266;-64
2023/06/13 02:04:11;;;;;;;3.00;3.00;;;;;;;-141.02;100.00;107971.50;5133591;27;20569;-61
2023/06/13 02:06:38;;;;;;;3.20;3.20;;;;;;;-141.02;100.00;107971.50;5133759;27;20231;-58
2023/06/13 02:09:05;;;;;;;2.80;2.80;;;;;;;-141.02;100.00;107971.50;5133421;27;20278;-58
2023/06/13 02:11:32;;;;;;;2.90;2.90;;;;;;;-141.02;100.00;107971.50;5133716;27;20224;-64
2023/06/13 02:13:59;;;;;;;3.00;3.00;;;;;;;-141.02;100.00;107971.50;5133649;27;20196;-60
2023/06/13 02:19:50;;;;;;;3.17;3.17;;;;;;;-141.02;100.00;107971.50;5132919;27;20248;-58
2023/06/13 02:22:17;;;;;;;3.55;3.45;;;;;;;-141.02;100.00;107971.50;5133500;27;20284;-60
2023/06/13 02:24:44;;;;;;;3.30;3.30;;;;;;;-141.02;100.00;107971.50;5133108;27;20216;-59
2023/06/13 02:27:11;;;;;;;3.60;3.50;;;;;;;-141.02;100.00;107971.50;5133221;27;20196;-59
2023/06/13 02:33:01;;;;;;;4.32;4.22;;;;;;;-141.02;100.00;107971.50;5133195;27;20676;-58
2023/06/13 02:35:29;;;;;;;3.97;3.88;;;;;;;-141.02;100.00;107971.50;5133076;27;20196;-58
2023/06/13 02:37:56;;;;;;;4.40;4.30;;;;;;;-141.02;100.00;107971.50;5133387;27;20220;-59
2023/06/13 02:40:24;;;;;;;4.32;4.22;;;;;;;-141.02;100.00;107971.50;5133449;27;20199;-58
2023/06/13 02:42:53;;;;;;;4.53;4.43;;;;;;;-141.02;100.00;107971.50;5133048;27;20192;-62
2023/06/13 02:45:20;;;;;;;4.60;4.50;;;;;;;-141.02;100.00;107971.50;5132910;28;20227;-59
2023/06/13 02:47:47;;;;;;;4.30;4.20;;;;;;;-141.02;100.00;107971.50;5133206;28;20197;-58
2023/06/13 02:50:37;;;;;;;4.10;4.00;;;;;;;-141.02;100.00;107971.50;5133212;28;20188;-58
2023/06/13 02:53:04;;;;;;;4.40;4.30;;;;;;;-141.02;100.00;107971.50;5132893;28;20696;-59
2023/06/13 02:55:31;;;;;;;5.10;5.00;;;;;;;-141.02;100.00;107971.50;5132915;27;20228;-58
2023/06/13 02:57:58;;;;;;;5.20;5.10;;;;;;;-141.02;100.00;107971.50;5132887;27;20192;-59
2023/06/13 03:00:25;;;;;;;5.35;5.25;;;;;;;-141.02;100.00;107971.50;5133204;28;20573;-61
2023/06/13 03:02:52;;;;;;;4.43;4.32;;;;;;;-141.02;100.00;107971.50;5132864;28;20196;-58
2023/06/13 03:05:20;;;;;;;5.13;5.03;;;;;;;-141.02;100.00;107971.50;5133051;28;20255;-61
2023/06/13 03:07:49;;;;;;;5.50;5.40;;;;;;;-141.02;100.00;107971.50;5133122;28;20256;-63
2023/06/13 03:10:16;;;;;;;4.95;4.85;;;;;;;-141.02;100.00;107971.50;5132782;28;20197;-58
2023/06/13 03:12:44;;;;;;;5.32;5.22;;;;;;;-141.02;100.00;107971.50;5133049;28;20287;-58
2023/06/13 03:15:12;;;;;;;5.03;4.93;;;;;;;-141.02;100.00;107971.50;5133054;28;20231;-57
2023/06/13 03:17:40;;;;;;;4.53;4.43;;;;;;;-141.02;100.00;107971.50;5132738;27;20722;-60
2023/06/13 03:20:09;;;;;;;4.40;4.30;;;;;;;-141.02;100.00;107971.50;5132972;28;20223;-62
2023/06/13 03:26:03;;;;;;;4.90;4.80;;;;;;;-141.02;100.00;107971.50;5132744;28;20261;-62
2023/06/13 03:28:30;;;;;;;4.30;4.20;;;;;;;-141.02;100.00;107971.50;5131746;28;20196;-58
2023/06/13 03:31:00;;;;;;;4.40;4.30;;;;;;;-141.02;100.00;107971.50;5132952;27;20665;-58
2023/06/13 03:33:27;;;;;;;4.35;4.25;;;;;;;-141.02;100.00;107971.50;5136742;27;20196;-58
2023/06/13 03:35:53;;;;;;;4.10;4.00;;;;;;;-141.02;100.00;107971.50;5136390;27;20283;-58
2023/06/13 03:38:20;;;;;;;4.40;4.30;;;;;;;-141.02;100.00;107971.50;5136635;27;20275;-58
2023/06/13 03:40:47;;;;;;;3.90;3.80;;;;;;;-141.02;100.00;107971.50;5136354;27;20228;-58
2023/06/13 03:43:16;;;;;;;4.60;4.50;;;;;;;-141.02;100.00;107971.50;5136300;27;20228;-64
2023/06/13 03:45:43;;;;;;;4.40;4.30;;;;;;;-141.02;100.00;107971.50;5136400;27;20571;-58
2023/06/13 03:48:10;;;;;;;4.60;4.50;;;;;;;-141.02;100.00;107971.50;5137044;27;20203;-59
2023/06/13 03:50:37;;;;;;;4.20;4.10;;;;;;;-141.02;100.00;107971.50;5136373;27;20299;-58
2023/06/13 03:53:04;;;;;;;4.15;4.05;;;;;;;-141.02;100.00;107971.50;5136456;27;20228;-62
2023/06/13 03:55:32;;;;;;;4.32;4.22;;;;;;;-141.02;100.00;107971.50;5135922;27;20777;-57
2023/06/13 03:58:02;;;;;;;5.07;4.97;;;;;;;-141.02;100.00;107971.50;5135937;27;20196;-65
2023/06/13 04:00:32;;;;;;;4.05;3.95;;;;;;;-141.02;100.00;107971.50;5135908;27;20207;-61
2023/06/13 04:03:00;;;;;;;4.50;4.40;;;;;;;-141.02;100.00;107971.50;5135919;27;20189;-65
2023/06/13 04:05:27;;;;;;;4.80;4.70;;;;;;;-141.02;100.00;107971.50;5136133;27;20228;-58
2023/06/13 04:07:54;;;;;;;4.90;4.80;;;;;;;-141.02;100.00;107971.50;5136072;27;20196;-58
2023/06/13 04:10:21;;;;;;;4.75;4.65;;;;;;;-141.02;100.00;107971.50;5135758;27;20287;-58
2023/06/13 04:12:48;;;;;;;4.60;4.50;;;;;;;-141.02;100.00;107971.50;5135908;27;20284;-60
2023/06/13 04:15:16;;;;;;;4.70;4.60;;;;;;;-141.02;100.00;107971.50;5135959;27;20276;-62
2023/06/13 04:17:44;;;;;;;5.47;5.38;;;;;;;-141.02;100.00;107971.50;5135608;27;20196;-64
2023/06/13 04:20:14;;;;;;;6.15;6.05;;;;;;;-141.02;100.00;107971.50;5135871;27;20220;-59
2023/06/13 04:22:43;;;;;;;6.60;6.45;;;;;;;-141.02;100.00;107971.50;5135887;27;20228;-59
2023/06/13 04:25:11;;;;;;;7.00;6.80;;;;;;;-141.02;100.00;107971.50;5135410;27;20192;-60
2023/06/13 04:27:38;;;;;;;6.40;6.30;;;;;;;-141.02;100.00;107971.50;5135451;27;20196;-60
2023/06/13 04:30:06;;;;;;;7.13;6.93;;;;;;;-141.02;100.00;107971.50;5135468;27;20279;-58
2023/06/13 04:32:34;;;;;;;6.20;6.10;;;;;;;-141.02;100.00;107971.50;5135633;27;20200;-57
2023/06/13 04:35:03;;;;;;;7.00;6.80;;;;;;;-141.02;100.00;107971.50;5135647;27;20207;-58
2023/06/13 04:37:30;;;;;;;7.47;7.28;;;;;;;-141.02;100.00;107971.50;5135236;27;20622;-66
2023/06/13 04:39:58;;;;;;;7.65;7.45;;;;;;;-141.02;100.00;107971.50;5136275;27;20188;-58
2023/06/13 04:42:27;;;;;;;8.20;8.00;;;;;;;-141.02;100.00;107971.50;5135453;27;20250;-58
2023/06/13 04:44:55;;;;;;;8.70;8.50;;;;;;;-141.02;100.00;107971.50;5135054;27;20267;-58
2023/06/13 04:47:23;;;;;;;8.80;8.60;;;;;;;-141.02;100.00;107971.50;5134950;27;20227;-59
2023/06/13 04:49:58;;;;;;;10.80;10.50;;;;;;;-141.02;100.00;107971.50;5135335;27;20216;-58
2023/06/13 04:52:26;;;;;;;12.25;11.95;;;;;;;-141.02;100.00;107971.50;5135356;27;20184;-59
2023/06/13 04:54:54;;;;;;;12.10;11.80;;;;;;;-141.02;100.00;107971.50;5134686;27;20764;-59
2023/06/13 04:57:21;;;;;;;12.20;11.90;;;;;;;-141.02;100.00;107971.50;5135219;27;20201;-59
2023/06/13 04:59:48;;;;;;;12.55;12.15;;;;;;;-141.02;100.00;107971.50;5135072;27;20197;-58
2023/06/13 05:02:15;;;;;;;11.43;11.13;;;;;;;-141.02;100.00;107971.50;5135065;27;20192;-58
2023/06/13 05:04:44;;;;;;;10.30;10.00;;;;;;;-141.02;100.00;107971.50;5134756;27;20658;-60
2023/06/13 05:07:15;;;;;;;10.57;10.27;;;;;;;-141.02;100.00;107971.50;5134485;27;20586;-58
2023/06/13 05:09:44;;;;;;;11.15;10.85;;;;;;;-141.02;100.00;107971.50;5134688;27;20669;-58
2023/06/13 05:12:11;;;;;;;10.40;10.10;;;;;;;-141.02;100.00;107971.50;5134521;27;20192;-61
2023/06/13 05:14:40;;;;;;;10.00;9.70;;;;;;;-141.02;100.00;107971.50;5134558;27;20189;-58
2023/06/13 05:17:07;;;;;;;10.02;9.73;;;;;;;-141.02;100.00;107971.50;5134437;27;20192;-58
2023/06/13 05:19:35;;;;;;;9.90;9.60;;;;;;;-141.02;100.00;107971.50;5134764;27;20254;-61
2023/06/13 05:22:04;;;;;;;8.40;8.20;;;;;;;-141.02;100.00;107971.50;5134622;27;20220;-60
2023/06/13 05:24:31;;;;;;;8.38;8.18;;;;;;;-141.02;100.00;107971.50;5134728;27;20195;-60
2023/06/13 05:26:59;;;;;;;9.00;8.80;;;;;;;-141.02;100.00;107971.50;5134450;27;20235;-60
2023/06/13 05:29:26;;;;;;;8.90;8.70;;;;;;;-141.02;100.00;107971.50;5134205;27;20283;-59
2023/06/13 05:31:53;;;;;;;9.02;8.82;;;;;;;-141.02;100.00;107971.50;5134441;27;20200;-62
2023/06/13 05:34:21;;;;;;;9.10;8.90;;;;;;;-141.02;100.00;107971.50;5134126;27;20189;-60
2023/06/13 05:36:48;;;;;;;8.05;7.85;;;;;;;-141.02;100.00;107971.50;5134109;27;20661;-58
2023/06/13 05:39:15;;;;;;;8.98;8.77;;;;;;;-141.02;100.00;107971.50;5133968;27;20232;-58
2023/06/13 05:41:42;;;;;;;9.70;9.40;;;;;;;-141.02;100.00;107971.50;5134280;27;20202;-59
2023/06/13 05:44:13;;;;;;;10.70;10.40;;;;;;;-141.02;100.00;107971.50;5133954;27;20204;-58
2023/06/13 05:46:41;;;;;;;10.82;10.52;;;;;;;-141.02;100.00;107971.50;5133792;27;20219;-59
2023/06/13 05:49:08;;;;;;;11.80;11.40;;;;;;;-141.02;100.00;107971.50;5133860;27;20676;-60
2023/06/13 05:51:36;;;;;;;11.77;11.40;;;;;;;-141.02;100.00;107971.50;5133740;27;20199;-60
2023/06/13 05:54:03;;;;;;;12.50;12.10;;;;;;;-141.02;100.00;107971.50;5133239;27;20188;-59
2023/06/13 05:56:32;;;;;;;13.80;13.40;;;;;;;-141.02;100.00;107971.50;5133743;27;20657;-59
2023/06/13 05:58:59;;;;;;;12.90;12.50;;;;;;;-141.02;100.00;107971.50;5133916;27;20192;-58
2023/06/13 06:01:29;;;;;;;12.57;12.18;;;;;;;-141.02;100.00;107971.50;5133976;27;20189;-58
2023/06/13 06:03:56;;;;;;;12.30;11.90;;;;;;;-141.02;100.00;107971.50;5133480;27;20594;-58
2023/06/13 06:06:23;;;;;;;13.57;13.18;;;;;;;-141.02;100.00;107971.50;5133818;27;20234;-58
2023/06/13 06:08:50;;;;;;;12.57;12.18;;;;;;;-141.02;100.00;107971.50;5133767;27;20283;-59
2023/06/13 06:11:17;;;;;;;12.60;12.20;;;;;;;-141.02;100.00;107971.50;5133806;27;20193;-58
2023/06/13 06:13:44;;;;;;;13.18;12.77;;;;;;;-141.02;100.00;107971.50;5134110;27;20288;-58
2023/06/13 06:16:11;;;;;;;14.10;13.60;;;;;;;-141.02;100.00;107971.50;5133737;27;20570;-58
2023/06/13 06:18:41;;;;;;;14.35;13.85;;;;;;;-141.02;100.00;107971.50;5133666;27;20197;-58
2023/06/13 06:21:08;;;;;;;15.73;15.13;;;;;;;-141.02;100.00;107971.50;5133520;27;20220;-60
2023/06/13 06:23:36;;;;;;;17.90;17.10;;;;;;;-141.02;100.00;107971.50;5133263;27;20642;-60
2023/06/13 06:26:03;;;;;;;17.00;16.30;;;;;;;-141.02;100.00;107971.50;5133389;27;20220;-58
2023/06/13 06:28:31;;;;;;;16.48;15.77;;;;;;;-141.02;100.00;107971.50;5133143;27;20241;-59
2023/06/13 06:30:58;;;;;;;17.40;16.60;;;;;;;-141.02;100.00;107971.50;5133499;27;20271;-62
2023/06/13 06:33:24;;;;;;;17.38;16.60;;;;;;;-141.02;100.00;107971.50;5133424;27;20200;-58
2023/06/13 06:35:53;;;;;;;15.73;15.13;;;;;;;-141.02;100.00;107971.50;5133170;27;20287;-58
2023/06/13 06:38:20;;;;;;;16.08;15.38;;;;;;;-141.02;100.00;107971.50;5133383;27;20193;-58
2023/06/13 06:40:47;;;;;;;16.90;16.10;;;;;;;-141.02;100.00;107971.50;5133084;27;20238;-62
2023/06/13 06:43:14;;;;;;;17.88;17.08;;;;;;;-141.02;100.00;107971.50;5133350;27;20280;-64
2023/06/13 06:45:41;;;;;;;18.05;17.25;;;;;;;-141.02;100.00;107971.50;5132935;28;20657;-62
2023/06/13 06:48:08;;;;;;;17.65;16.75;;;;;;;-141.02;100.00;107971.50;5133322;28;20275;-58
2023/06/13 06:50:35;;;;;;;17.73;16.92;;;;;;;-141.02;100.00;107971.50;5133246;28;20231;-59
2023/06/13 06:53:04;;;;;;;17.50;16.60;;;;;;;-141.02;100.00;107971.50;5133224;28;20254;-59
2023/06/13 06:55:31;;;;;;;18.00;17.10;;;;;;;-141.02;100.00;107971.50;5133186;28;20690;-59
2023/06/13 06:57:58;;;;;;;18.13;17.23;;;;;;;-141.02;100.00;107971.50;5133219;28;20278;-59
2023/06/13 07:00:25;;;;;;;18.23;17.33;;;;;;;-141.02;100.00;107971.50;5133242;28;20275;-58
2023/06/13 07:02:54;;;;;;;18.35;17.45;;;;;;;-141.02;100.00;107971.50;5132878;28;20634;-58
2023/06/13 07:05:21;;;;;;;18.10;17.10;;;;;;;-141.02;100.00;107971.50;5133044;27;20193;-61
2023/06/13 07:07:48;;;;;;;18.15;17.25;;;;;;;-141.02;100.00;107971.50;5136966;27;20273;-58
2023/06/13 07:10:17;;;;;;;18.10;17.30;;;;;;;-141.02;100.00;107971.50;5136978;27;20639;-64
2023/06/13 07:12:44;;;;;;;17.30;16.50;;;;;;;-141.02;100.00;107971.50;5137802;27;20219;-59
2023/06/13 07:15:11;;;;;;;16.90;16.10;;;;;;;-141.02;100.00;107971.50;5136837;27;20283;-58
2023/06/13 07:17:38;;;;;;;17.10;16.30;;;;;;;-141.02;100.00;107971.50;5136774;27;20677;-61
2023/06/13 07:20:08;;;;;;;16.80;16.00;;;;;;;-141.02;100.00;107971.50;5137014;27;20258;-59
2023/06/13 07:22:35;;;;;;;17.15;16.35;;;;;;;-141.02;100.00;107971.50;5137049;27;20223;-59
2023/06/13 07:25:03;;;;;;;19.83;18.73;;;;;;;-141.02;100.00;107971.50;5137014;27;20224;-64
2023/06/13 07:27:31;;;;;;;19.05;17.85;;;;;;;-141.02;100.00;107971.50;5136811;27;20227;-60
2023/06/13 07:29:58;;;;;;;19.90;18.70;;;;;;;-141.02;100.00;107971.50;5136546;27;20192;-58
2023/06/13 07:32:26;;;;;;;20.00;18.83;;;;;;;-141.02;100.00;107971.50;5136778;27;20279;-59
2023/06/13 07:34:53;;;;;;;19.90;18.70;;;;;;;-141.02;100.00;107971.50;5136781;27;20215;-58
2023/06/13 07:37:21;;;;;;;19.75;18.45;;;;;;;-141.02;100.00;107969.53;5136796;27;20265;-61
2023/06/13 07:39:48;;;;;;;18.90;17.80;;;;;;;-141.02;100.00;107971.50;5136371;27;20663;-61
2023/06/13 07:42:15;;;;;;;19.23;18.13;;;;;;;-141.02;100.00;107969.53;5136311;27;20196;-58
2023/06/13 07:44:43;;;;;;;19.65;18.55;;;;;;;-141.02;100.00;107969.53;5136267;27;20228;-59
2023/06/13 07:47:10;;;;;;;18.85;17.85;;;;;;;-141.02;100.00;107969.53;5136437;27;20263;-63
2023/06/13 07:49:37;;;;;;;18.58;17.67;;;;;;;-141.02;100.00;107969.53;5136428;27;20253;-59
2023/06/13 07:52:07;;;;;;;18.35;17.45;;;;;;;-141.02;100.00;107969.53;5136658;27;20634;-58
2023/06/13 07:54:36;;;;;;;18.10;17.20;;;;;;;-141.02;100.00;107969.53;5135903;27;20232;-61
2023/06/13 07:57:03;;;;;;;17.48;16.67;;;;;;;-141.02;100.00;107969.53;5136388;27;20197;-62
2023/06/13 07:59:30;;;;;;;16.48;15.77;;;;;;;-141.02;100.00;107969.53;5136271;27;20195;-61
2023/06/13 08:01:59;;;;;;;16.00;15.30;;;;;;;-141.02;100.00;107971.50;5135937;27;20720;-58
2023/06/13 08:04:26;;;;;;;16.70;15.90;;;;;;;-141.02;100.00;107971.50;5136259;27;20192;-58
2023/06/13 08:06:53;;;;;;;17.27;16.40;;;;;;;-141.02;100.00;107971.50;5135726;27;20604;-58
2023/06/13 08:09:22;;;;;;;16.77;15.98;;;;;;;-141.02;100.00;107971.50;5136222;27;20215;-61
2023/06/13 08:11:50;;;;;;;16.60;15.70;;;;;;;-141.02;100.00;107969.53;5136172;27;20281;-59
2023/06/13 08:14:17;;;;;;;16.27;15.38;;;;;;;-141.02;100.00;107969.53;5135710;27;20196;-61
2023/06/13 08:16:44;;;;;;;17.70;16.80;;;;;;;-141.02;100.00;107969.53;5135488;27;20231;-60
2023/06/13 08:19:12;;;;;;;17.52;16.52;;;;;;;-141.02;100.00;107969.53;5135957;27;20220;-59
2023/06/13 08:21:39;;;;;;;18.50;17.40;;;;;;;-141.02;100.00;107719.09;5135959;27;20279;-66
2023/06/13 08:24:06;;;;;;;18.65;17.45;;;;;;;-141.02;100.00;107969.53;5135794;27;20280;-58
2023/06/13 08:26:33;;;;;;;19.00;17.70;;;;;;;-141.02;100.00;107719.09;5135432;27;20307;-59
2023/06/13 08:29:01;;;;;;;18.40;17.10;;;;;;;-141.02;100.00;107719.09;5135783;27;20283;-58
2023/06/13 08:31:29;;;;;;;18.80;17.50;;;;;;;-141.02;100.00;107719.09;5135701;27;20215;-62
2023/06/13 08:33:56;;;;;;;18.48;17.08;;;;;;;-141.02;100.00;107719.09;5135364;27;20203;-58
2023/06/13 08:36:25;;;;;;;20.30;18.50;;;;;;;-141.02;100.00;107218.31;5135263;27;20728;-58
2023/06/13 08:38:52;;;;;;;19.30;17.70;;;;;;;-141.02;100.00;107468.69;5135489;27;20282;-57
2023/06/13 08:41:20;;;;;;;19.88;18.10;;;;;;;-141.02;92.98;106717.56;5135243;27;20729;-57
2023/06/13 08:43:47;;;;;;;19.15;17.45;;;;;;;-141.02;98.12;106717.56;5135491;27;20245;-58
2023/06/13 08:46:15;;;;;;;19.00;17.40;;;;;;;-141.02;94.81;105966.59;5135198;27;20731;-57
2023/06/13 08:48:42;;;;;;;18.42;17.08;;;;;;;-141.02;100.00;106967.91;5134922;27;20697;-65
2023/06/13 08:51:13;;;;;;;19.58;17.98;;;;;;;-141.02;95.27;106216.91;5135028;27;20662;-60
2023/06/13 08:53:48;;;;;;;19.17;17.55;;;;;;;-141.02;96.35;106216.91;5135288;27;20192;-58
2023/06/13 08:56:16;;;;;;;20.52;18.73;;;;;;;-141.02;92.52;105966.59;5135273;27;20242;-58
2023/06/13 08:58:47;;;;;;;20.42;18.55;;;;;;;-141.02;93.45;105716.31;5135206;27;20220;-59
2023/06/13 09:01:14;;;;;;;20.40;18.50;;;;;;;-141.02;91.34;105215.78;5135179;27;20216;-58
2023/06/13 09:03:42;;;;;;;20.05;18.15;;;;;;;-141.02;95.29;105466.03;5134778;27;20279;-61
2023/06/13 09:06:11;;;;;;;20.85;18.85;;;;;;;-141.02;95.76;105466.03;5134792;27;20196;-58
2023/06/13 09:08:39;;;;;;;21.42;19.52;;;;;;;-141.02;92.93;105215.78;5134563;27;20281;-58
2023/06/13 09:11:08;;;;;;;20.92;18.92;;;;;;;-141.02;93.10;105215.78;5134620;27;20193;-59
2023/06/13 09:13:37;;;;;;;22.00;20.00;;;;;;;-141.02;95.34;105215.78;5134943;27;20283;-59
2023/06/13 09:16:04;;;;;;;22.67;20.50;;;;;;;-141.02;92.60;104965.56;5134837;27;20232;-60
2023/06/13 09:18:36;;;;;;;21.05;19.15;;;;;;;-141.02;93.07;104965.56;5134460;27;20279;-59
2023/06/13 09:21:03;;;;;;;23.08;20.77;;;;;;;-141.02;89.40;103964.81;5134421;27;20189;-60
2023/06/13 09:23:32;;;;;;;23.67;21.48;;;;;;;-141.02;91.74;104465.16;5134330;27;20642;-62
2023/06/13 09:26:02;;;;;;;24.77;22.48;;;;;;;-141.02;93.30;104465.16;5135537;27;20335;-58
2023/06/13 09:28:31;;;;;;;23.67;21.38;;;;;;;-141.02;89.94;104214.97;5133630;27;20277;-58
2023/06/13 09:30:59;;;;;;;22.25;20.08;;;;;;;-141.02;91.51;104465.16;5134522;27;20196;-60
2023/06/13 09:33:26;;;;;;;23.58;21.20;;;;;;;-141.02;86.86;103714.66;5134425;27;20287;-60
2023/06/13 09:35:53;;;;;;;23.05;20.65;;;;;;;-141.02;88.72;104465.16;5134056;27;20239;-58
2023/06/13 09:38:23;;;;;;;22.92;20.63;;;;;;;-141.02;87.81;103964.81;5134324;27;20267;-61
2023/06/13 09:40:50;;;;;;;22.35;20.05;;;;;;;-141.02;89.79;103964.81;5134465;27;20249;-58
2023/06/13 09:43:18;;;;;;;24.40;21.90;;;;;;;-141.02;87.64;103214.44;5134226;27;20213;-57
2023/06/13 09:45:48;;;;;;;24.13;21.73;;;;;;;-141.02;90.87;103214.44;5133886;27;20275;-62
2023/06/13 09:48:16;;;;;;;22.63;20.52;;;;;;;-141.02;98.99;103464.53;5133830;27;20212;-61
2023/06/13 09:50:43;;;;;;;19.40;17.80;;;;;;;-141.02;100.00;103714.66;5134133;27;20280;-57
2023/06/13 09:53:11;;;;;;;20.02;18.23;;;;;;;-141.02;100.00;103714.66;5134183;27;20196;-57
2023/06/13 09:55:39;;;;;;;18.88;17.27;;;;;;;-141.02;100.00;103714.66;5133756;27;20232;-57
2023/06/13 09:58:06;;;;;;;19.05;17.45;;;;;;;-141.02;100.00;103714.66;5133743;27;20228;-57
2023/06/13 10:00:33;;;;;;;20.25;18.35;;;;;;;-141.02;100.00;103464.53;5134035;27;20548;-65
2023/06/13 10:03:03;;;;;;;19.50;17.90;;;;;;;-141.02;100.00;103214.44;5133593;27;20279;-59
2023/06/13 10:05:30;;;;;;;19.98;18.27;;;;;;;-141.02;100.00;102714.25;5133899;27;20203;-58
2023/06/13 10:07:57;;;;;;;19.33;17.73;;;;;;;-141.02;100.00;102964.34;5133753;27;20255;-58
2023/06/13 10:10:24;;;;;;;19.55;17.85;;;;;;;-141.02;100.00;103714.66;5133534;27;20192;-57
2023/06/13 10:12:56;;;;;;;20.30;18.42;;;;;;;-141.02;100.00;103964.81;5133732;27;20699;-58
2023/06/13 10:15:30;;;;;;;20.02;18.23;;;;;;;-141.02;100.00;103964.81;5133960;27;20249;-58
2023/06/13 10:18:02;;;;;;;20.10;18.30;;;;;;;-141.02;100.00;104715.34;5133331;27;20556;-57
2023/06/13 10:20:32;;;;;;;22.33;20.13;;;;;;;-141.02;95.08;103714.66;5133669;27;20192;-59
2023/06/13 10:23:00;;;;;;;21.17;19.17;;;;;;;-141.02;99.59;103714.66;5134209;27;20192;-58
2023/06/13 10:25:28;;;;;;;21.55;19.45;;;;;;;-141.02;100.00;103464.53;5133618;27;20188;-59
2023/06/13 10:28:01;;;;;;;21.27;19.20;;;;;;;-141.02;100.00;103214.44;5133445;27;20220;-58
2023/06/13 10:30:50;;;;;;;22.75;20.55;;;;;;;-141.02;99.91;102714.25;5133505;27;20263;-58
2023/06/13 10:33:52;;;;;;;21.50;19.40;;;;;;;-141.02;100.00;102964.34;5133128;27;20604;-61
2023/06/13 10:36:27;;;;;;;22.52;20.42;;;;;;;-141.02;100.00;102714.25;5133836;27;20200;-60
2023/06/13 10:39:19;;;;;;;20.60;18.70;;;;;;;-141.02;100.00;103214.44;5133120;27;20191;-71
2023/06/13 10:41:58;;;;;;;21.90;19.80;;;;;;;-141.02;100.00;102714.25;5133118;27;20689;-60
2023/06/13 10:44:32;;;;;;;20.77;18.88;;;;;;;-141.02;100.00;102964.34;5133376;27;20228;-67
2023/06/13 10:46:59;;;;;;;20.75;18.85;;;;;;;-141.02;100.00;102714.25;5133328;28;20267;-70
2023/06/13 10:49:36;;;;;;;20.60;18.70;;;;;;;-141.02;100.00;102214.16;5133248;28;20279;-59
2023/06/13 10:52:09;;;;;;;20.25;18.45;;;;;;;-141.02;100.00;102214.16;5133313;27;20184;-58
2023/06/13 10:54:36;;;;;;;19.77;18.08;;;;;;;-141.02;100.00;102714.25;5132977;27;20675;-67
2023/06/13 10:57:06;;;;;;;21.80;19.75;;;;;;;-141.02;100.00;101964.16;5133225;28;20624;-60
2023/06/13 10:59:37;;;;;;;20.63;18.83;;;;;;;-141.02;100.00;101964.16;5133248;27;20198;-58
2023/06/13 11:02:05;;;;;;;19.80;18.20;;;;;;;-141.02;100.00;101964.16;5132938;28;20271;-60
2023/06/13 11:04:32;;;;;;;19.13;17.52;;;;;;;-141.02;100.00;102464.22;5133197;28;20275;-58
2023/06/13 11:07:30;;;;;;;18.98;17.38;;;;;;;-141.02;100.00;101964.16;5132812;28;20199;-57
2023/06/13 11:10:10;;;;;;;19.05;17.45;;;;;;;-141.02;100.00;101964.16;5133386;27;20200;-57
2023/06/13 11:12:37;;;;;;;17.13;15.93;;;;;;;-141.02;100.00;101964.16;5133032;28;20188;-68
2023/06/13 11:15:05;;;;;;;16.20;15.30;;;;;;;-141.02;100.00;102214.16;5133004;28;20318;-57
2023/06/13 11:17:34;;;;;;;14.88;14.10;;;;;;;-141.02;100.00;102214.16;5133088;28;20275;-58
2023/06/13 11:20:01;;;;;;;14.02;13.45;;;;;;;-141.02;100.00;102214.16;5132996;28;20197;-71